createdAt,value
2023-01-02T00:01:16.408Z,19.5375
2023-01-02T00:04:16.130Z,18.075000000000003
2023-01-02T00:07:16.240Z,18.0375
2023-01-02T00:11:16.072Z,33.387499999999996
2023-01-02T00:14:16.156Z,31
2023-01-02T00:17:18.897Z,25.475
2023-01-02T00:21:16.871Z,27.800000000000004
2023-01-02T00:24:16.758Z,15.1875
2023-01-02T00:27:16.910Z,14.812500000000002
2023-01-02T00:31:16.292Z,14
2023-01-02T00:34:16.507Z,15.225000000000001
2023-01-02T00:37:16.411Z,13.087499999999999
2023-01-02T00:41:15.888Z,18.65
2023-01-02T00:44:16.420Z,15.725000000000001
2023-01-02T00:47:16.349Z,12.725
2023-01-02T00:51:16.121Z,11.900000000000002
2023-01-02T00:54:16.537Z,16.4375
2023-01-02T00:57:16.380Z,11.149999999999999
2023-01-02T01:01:16.510Z,13.6125
2023-01-02T01:04:16.910Z,19.012500000000003
2023-01-02T01:07:16.916Z,15.237499999999999
2023-01-02T01:11:16.287Z,19.7625
2023-01-02T01:14:16.429Z,21.737499999999997
2023-01-02T01:17:16.257Z,12.6
2023-01-02T01:21:18.928Z,9.6375
2023-01-02T01:24:16.462Z,15.95
2023-01-02T01:27:16.410Z,12.100000000000001
2023-01-02T01:31:16.623Z,13.4625
2023-01-02T01:34:16.735Z,16.875
2023-01-02T01:37:16.938Z,13.0625
2023-01-02T01:41:18.134Z,15.6375
2023-01-02T01:44:42.780Z,10.837499999999999
2023-01-02T01:47:24.224Z,12.2
2023-01-02T01:51:18.177Z,18.9625
2023-01-02T01:54:21.880Z,12.775
2023-01-02T01:57:22.104Z,18.9
2023-01-02T02:01:17.350Z,13.2625
2023-01-02T02:04:18.824Z,19.9625
2023-01-02T02:07:16.605Z,16.0875
2023-01-02T02:11:17.298Z,14.962499999999999
2023-01-02T02:14:16.686Z,14.2
2023-01-02T02:17:26.347Z,13.3125
2023-01-02T02:21:31.849Z,14.412500000000001
2023-01-02T02:24:35.779Z,13.5125
2023-01-02T02:27:36.757Z,15.950000000000001
2023-01-02T02:31:24.935Z,9.525
2023-01-02T02:34:22.676Z,17
2023-01-02T02:37:24.635Z,11.025
2023-01-02T02:41:25.279Z,16.087500000000002
2023-01-02T02:44:29.559Z,13.412500000000001
2023-01-02T02:47:21.409Z,12.775
2023-01-02T02:51:23.671Z,12.2
2023-01-02T02:54:30.420Z,8.0125
2023-01-02T02:57:18.617Z,10.3375
2023-01-02T03:01:18.298Z,13.7875
2023-01-02T03:04:18.127Z,7.5875
2023-01-02T03:07:25.900Z,12.3375
2023-01-02T03:11:16.338Z,16.8875
2023-01-02T03:14:23.723Z,21.475
2023-01-02T03:17:26.628Z,16.2375
2023-01-02T03:21:20.875Z,11.174999999999999
2023-01-02T03:24:20.452Z,9.375
2023-01-02T03:27:21.819Z,13.425
2023-01-02T03:31:18.614Z,9.9625
2023-01-02T03:34:20.688Z,13.1375
2023-01-02T03:37:21.658Z,11.9875
2023-01-02T03:41:20.067Z,13.9
2023-01-02T03:44:18.227Z,12.475
2023-01-02T03:47:25.889Z,11.475
2023-01-02T03:51:15.920Z,13.8
2023-01-02T03:54:17.266Z,10.2625
2023-01-02T03:57:26.525Z,8.225
2023-01-02T04:01:25.940Z,11.0875
2023-01-02T04:04:21.649Z,11.2875
2023-01-02T04:07:24.508Z,15.875
2023-01-02T04:11:19.792Z,11.45
2023-01-02T04:14:19.316Z,9.45
2023-01-02T04:17:19.896Z,9.55
2023-01-02T04:21:23.972Z,15.762500000000001
2023-01-02T04:24:22.287Z,13.487499999999999
2023-01-02T04:27:21.710Z,15.5
2023-01-02T04:31:20.397Z,21.712500000000002
2023-01-02T04:34:18.890Z,10.2125
2023-01-02T04:37:35.179Z,8.8375
2023-01-02T04:41:21.057Z,12.475
2023-01-02T05:01:18.204Z,8.024999999999999
2023-01-02T05:04:16.261Z,8.9625
2023-01-02T05:07:16.177Z,12.837499999999999
2023-01-02T05:11:18.582Z,10.712499999999999
2023-01-02T05:14:17.133Z,8
2023-01-02T05:17:17.053Z,9.1875
2023-01-02T05:31:16.030Z,15.1875
2023-01-02T05:34:16.690Z,14.4
2023-01-02T05:37:16.373Z,13.712500000000002
2023-01-02T05:41:16.215Z,10.9125
2023-01-02T05:44:16.058Z,8.8125
2023-01-02T05:47:16.649Z,9.0875
2023-01-02T05:51:17.169Z,9.0625
2023-01-02T05:54:16.598Z,14.675
2023-01-02T05:57:16.768Z,11.137500000000001
2023-01-02T06:01:18.596Z,7.9
2023-01-02T06:04:19.787Z,8.8875
2023-01-02T06:07:16.872Z,8.275
2023-01-02T06:11:16.447Z,10.25
2023-01-02T06:14:16.639Z,18.075000000000003
2023-01-02T06:17:16.731Z,13.4
2023-01-02T06:21:18.543Z,9.5875
2023-01-02T06:24:16.628Z,11.9125
2023-01-02T06:27:16.737Z,7.275
2023-01-02T06:31:18.039Z,12.7875
2023-01-02T06:34:17.906Z,13.0125
2023-01-02T06:37:16.120Z,8.162500000000001
2023-01-02T06:41:17.089Z,11.524999999999999
2023-01-02T06:44:16.738Z,9.025
2023-01-02T06:47:16.570Z,12.425
2023-01-02T06:51:18.544Z,8.175
2023-01-02T06:54:16.116Z,11.875
2023-01-02T06:57:16.132Z,12.375
2023-01-02T07:01:20.493Z,19.45
2023-01-02T07:04:16.810Z,11.774999999999999
2023-01-02T07:07:16.379Z,11.125
2023-01-02T07:11:18.100Z,10.5
2023-01-02T07:14:16.402Z,10.55
2023-01-02T07:17:16.407Z,14.224999999999998
2023-01-02T07:21:16.547Z,12
2023-01-02T07:24:16.540Z,11.3125
2023-01-02T07:27:16.413Z,10.262500000000001
2023-01-02T07:31:17.737Z,12.7
2023-01-02T07:34:16.301Z,13.5
2023-01-02T07:37:16.326Z,12.2625
2023-01-02T07:41:17.463Z,13.100000000000001
2023-01-02T07:44:16.313Z,11.35
2023-01-02T07:47:16.252Z,19.200000000000003
2023-01-02T07:51:21.078Z,14.8
2023-01-02T07:54:16.191Z,17.412499999999998
2023-01-02T07:57:16.179Z,12.775
2023-01-02T08:01:16.434Z,10.5625
2023-01-02T08:04:16.920Z,9.325
2023-01-02T08:07:16.770Z,11.412500000000001
2023-01-02T08:11:18.963Z,14.249999999999998
2023-01-02T08:14:21.688Z,13.262500000000001
2023-01-02T08:17:16.760Z,11.9125
2023-01-02T08:21:15.845Z,16.5875
2023-01-02T08:24:16.131Z,17.6
2023-01-02T08:27:16.396Z,14.625
2023-01-02T08:31:19.219Z,14.4625
2023-01-02T08:34:17.958Z,11.75
2023-01-02T08:37:16.354Z,20.225
2023-01-02T08:41:29.938Z,12.8375
2023-01-02T08:44:16.529Z,12.5625
2023-01-02T08:47:16.700Z,14.087499999999999
2023-01-02T08:51:16.769Z,18.7625
2023-01-02T08:54:16.914Z,11.024999999999999
2023-01-02T08:57:16.862Z,18.225
2023-01-02T09:01:16.514Z,14.8625
2023-01-02T09:04:17.690Z,12.725
2023-01-02T09:07:17.136Z,19.7625
2023-01-02T09:11:18.971Z,20.075
2023-01-02T09:14:17.593Z,8.375
2023-01-02T09:17:16.706Z,14.1625
2023-01-02T09:21:15.805Z,15.575000000000001
2023-01-02T09:24:16.323Z,14.3875
2023-01-02T09:27:16.221Z,15.862499999999999
2023-01-02T09:31:17.178Z,14.2625
2023-01-02T09:34:16.300Z,13.587499999999999
2023-01-02T09:37:16.675Z,13.7625
2023-01-02T09:41:26.711Z,20.625
2023-01-02T09:44:21.024Z,13.337499999999999
2023-01-02T09:47:19.398Z,13.95
2023-01-02T09:51:16.468Z,11.899999999999999
2023-01-02T09:54:23.371Z,12.4
2023-01-02T09:57:34.032Z,13.775
2023-01-02T10:01:26.933Z,13.3625
2023-01-02T10:04:26.021Z,11.712499999999999
2023-01-02T10:07:26.272Z,11.875
2023-01-02T10:11:27.960Z,13.8875
2023-01-02T10:14:34.741Z,12.7
2023-01-02T10:17:18.792Z,18.25
2023-01-02T10:21:20.426Z,18.775
2023-01-02T10:24:21.017Z,16.625
2023-01-02T10:27:18.895Z,16.25
2023-01-02T10:31:20.400Z,14.8875
2023-01-02T10:34:18.619Z,16.724999999999998
2023-01-02T10:37:16.685Z,15.087500000000002
2023-01-02T10:41:17.303Z,14.2
2023-01-02T10:44:22.778Z,17.299999999999997
2023-01-02T10:47:21.119Z,16.7125
2023-01-02T10:51:18.113Z,23.450000000000003
2023-01-02T10:54:17.168Z,16.137500000000003
2023-01-02T10:57:25.029Z,14.7125
2023-01-02T11:01:20.626Z,16.125
2023-01-02T11:04:21.455Z,21.262500000000003
2023-01-02T11:07:25.104Z,14.950000000000001
2023-01-02T11:11:17.601Z,14.2625
2023-01-02T11:14:20.219Z,17.112499999999997
2023-01-02T11:17:19.066Z,20.174999999999997
2023-01-02T11:21:25.082Z,15.037500000000001
2023-01-02T11:24:20.996Z,19
2023-01-02T11:27:16.982Z,11.600000000000001
2023-01-02T11:31:18.308Z,19.087500000000002
2023-01-02T11:34:20.789Z,16.525000000000002
2023-01-02T11:37:17.244Z,14.5875
2023-01-02T11:41:36.829Z,21.6
2023-01-02T11:44:22.052Z,18.924999999999997
2023-01-02T11:47:17.852Z,19.387500000000003
2023-01-02T11:51:18.079Z,17.0875
2023-01-02T11:54:21.652Z,18.8875
2023-01-02T11:57:27.972Z,19.475
2023-01-02T12:01:24.322Z,20.6
2023-01-02T12:04:17.109Z,18.8625
2023-01-02T12:07:37.436Z,19.737499999999997
2023-01-02T12:11:31.845Z,30.2875
2023-01-02T12:14:19.173Z,19.725
2023-01-02T12:17:21.620Z,24.25
2023-01-02T12:21:22.135Z,19.450000000000003
2023-01-02T12:24:45.078Z,16.2
2023-01-02T12:27:24.259Z,17.737499999999997
2023-01-02T12:31:33.026Z,22.387500000000003
2023-01-02T12:34:32.616Z,19.275
2023-01-02T12:37:28.918Z,20.6625
2023-01-02T12:41:24.947Z,23.8125
2023-01-02T12:44:29.853Z,26.2625
2023-01-02T12:47:36.364Z,23.424999999999997
2023-01-02T12:51:21.574Z,22.049999999999997
2023-01-02T12:54:31.751Z,16.6
2023-01-02T12:57:25.871Z,23.15
2023-01-02T13:01:23.450Z,19.2125
2023-01-02T13:04:19.807Z,17.6625
2023-01-02T13:07:27.924Z,19.3
2023-01-02T13:11:25.856Z,15
2023-01-02T13:14:21.315Z,13.1375
2023-01-02T13:17:42.727Z,14.637500000000001
2023-01-02T13:21:23.104Z,18.424999999999997
2023-01-02T13:24:23.007Z,15.7125
2023-01-02T13:27:17.280Z,19.225
2023-01-02T13:31:45.461Z,17.875
2023-01-02T13:34:23.022Z,17.7625
2023-01-02T13:37:20.550Z,14.4375
2023-01-02T13:41:18.214Z,15.275
2023-01-02T13:44:16.295Z,15.350000000000001
2023-01-02T13:47:25.963Z,15
2023-01-02T13:51:21.388Z,12
2023-01-02T13:54:18.741Z,14.0125
2023-01-02T13:57:30.793Z,15.850000000000001
2023-01-02T14:11:26.619Z,16.1375
2023-01-02T14:14:23.140Z,15.5125
2023-01-02T14:17:27.338Z,15.0625
2023-01-02T14:21:18.668Z,18.65
2023-01-02T14:24:30.224Z,13.174999999999999
2023-01-02T14:27:22.206Z,19.237499999999997
2023-01-02T14:31:18.519Z,16.525
2023-01-02T14:34:23.608Z,17.275
2023-01-02T14:37:28.867Z,19.45
2023-01-02T14:51:21.316Z,21.6
2023-01-02T14:54:19.506Z,15.674999999999999
2023-01-02T14:57:27.272Z,15.287500000000001
2023-01-02T15:01:42.253Z,14.3625
2023-01-02T15:04:25.001Z,18.4625
2023-01-02T15:07:24.824Z,24.450000000000003
2023-01-02T15:21:24.512Z,23.4625
2023-01-02T15:24:20.384Z,20.225
2023-01-02T15:27:22.873Z,22.125
2023-01-02T15:31:16.286Z,19.5
2023-01-02T15:34:24.480Z,22.3875
2023-01-02T15:37:19.467Z,17.9125
2023-01-02T15:41:17.647Z,19.5375
2023-01-02T15:45:19.088Z,18.349999999999998
2023-01-02T15:47:23.877Z,19.75
2023-01-02T15:51:18.873Z,22.175
2023-01-02T15:54:16.958Z,24.4875
2023-01-02T15:57:18.741Z,20.849999999999998
2023-01-02T16:01:19.190Z,23.8125
2023-01-02T16:04:24.876Z,25.65
2023-01-02T16:07:24.323Z,19.0875
2023-01-02T16:11:16.533Z,29.5625
2023-01-02T16:14:26.576Z,36.35
2023-01-02T16:17:22.904Z,39.375
2023-01-02T16:21:17.524Z,37.8125
2023-01-02T16:24:19.222Z,18
2023-01-02T16:27:24.628Z,26.2375
2023-01-02T16:31:19.971Z,18.475
2023-01-02T16:34:26.350Z,20.700000000000003
2023-01-02T16:37:35.902Z,14.05
2023-01-02T16:41:57.055Z,17.4125
2023-01-02T16:44:17.864Z,18.3625
2023-01-02T16:47:16.902Z,16.1
2023-01-02T16:51:16.730Z,22.450000000000003
2023-01-02T16:54:18.148Z,23.6
2023-01-02T16:57:20.670Z,32.6875
2023-01-02T17:01:16.313Z,35.3875
2023-01-02T17:04:16.428Z,38.0125
2023-01-02T17:07:21.911Z,27.262500000000003
2023-01-02T17:11:18.241Z,28.025
2023-01-02T17:14:16.328Z,20.200000000000003
2023-01-02T17:17:16.458Z,22
2023-01-02T17:21:16.262Z,27.487499999999997
2023-01-02T17:24:17.216Z,25.825
2023-01-02T17:27:16.529Z,22.5
2023-01-02T17:31:21.160Z,28.487499999999997
2023-01-02T17:34:17.027Z,22.325
2023-01-02T17:37:17.484Z,22.7
2023-01-02T17:41:16.728Z,26.75
2023-01-02T17:44:17.385Z,28.375
2023-01-02T17:47:48.667Z,23.9125
2023-01-02T17:51:16.497Z,25.15
2023-01-02T17:54:16.788Z,27.262500000000003
2023-01-02T17:57:16.852Z,29.474999999999998
2023-01-02T18:01:19.172Z,26.775000000000002
2023-01-02T18:04:17.451Z,23.7375
2023-01-02T18:07:17.225Z,25.2875
2023-01-02T18:11:16.438Z,26.9
2023-01-02T18:14:22.580Z,23.5625
2023-01-02T18:17:19.817Z,24.825
2023-01-02T18:21:20.863Z,25.0625
2023-01-02T18:24:22.598Z,23.8625
2023-01-02T18:27:21.067Z,19.7375
2023-01-02T18:31:18.508Z,22.875
2023-01-02T18:34:46.619Z,19
2023-01-02T18:37:20.491Z,20.975
2023-01-02T18:41:24.492Z,27.4
2023-01-02T18:44:22.131Z,23.4375
2023-01-02T18:47:24.689Z,22.525
2023-01-02T18:51:21.678Z,24.4
2023-01-02T18:54:27.027Z,22.950000000000003
2023-01-02T18:57:19.069Z,23.4125
2023-01-02T19:01:23.147Z,19.0375
2023-01-02T19:04:27.325Z,21.475
2023-01-02T19:07:25.856Z,34.2125
2023-01-02T19:13:07.274Z,35.025
2023-01-02T19:14:18.547Z,33.225
2023-01-02T19:17:22.188Z,33.0625
2023-01-02T19:21:23.265Z,31.450000000000003
2023-01-02T19:24:18.957Z,27.125
2023-01-02T19:27:23.102Z,36.95
2023-01-02T19:31:16.569Z,39.85
2023-01-02T19:34:26.121Z,36.462500000000006
2023-01-02T19:37:30.367Z,41.875
2023-01-02T19:41:16.563Z,38.125
2023-01-02T19:44:16.580Z,35.4875
2023-01-02T19:47:17.377Z,31.549999999999997
2023-01-02T19:51:16.305Z,34.400000000000006
2023-01-02T19:54:16.752Z,30.375
2023-01-02T19:57:19.001Z,23.825000000000003
2023-01-02T20:01:16.605Z,24.974999999999998
2023-01-02T20:04:17.002Z,33.625
2023-01-02T20:07:16.716Z,35.8125
2023-01-02T20:12:30.290Z,37.85
2023-01-02T20:14:16.563Z,34.7625
2023-01-02T20:17:16.547Z,32.1125
2023-01-02T20:21:15.866Z,33.512499999999996
2023-01-02T20:24:16.290Z,30.0375
2023-01-02T20:27:16.413Z,33.5875
2023-01-02T20:31:16.828Z,30.075
2023-01-02T20:34:17.452Z,27.6
2023-01-02T20:37:21.651Z,27.112499999999997
2023-01-02T20:41:16.567Z,26.950000000000003
2023-01-02T20:44:17.207Z,30.6875
2023-01-02T20:47:17.341Z,27.462500000000002
2023-01-02T20:51:16.189Z,28.0375
2023-01-02T20:54:16.560Z,26
2023-01-02T20:57:16.436Z,24.412499999999998
2023-01-02T21:01:16.986Z,28.85
2023-01-02T21:04:22.577Z,24.549999999999997
2023-01-02T21:07:16.583Z,40.8375
2023-01-02T21:11:15.910Z,30.9
2023-01-02T21:14:16.180Z,33.1125
2023-01-02T21:17:16.028Z,23.15
2023-01-02T21:21:19.837Z,31.6
2023-01-02T21:24:17.007Z,26.35
2023-01-02T21:27:17.150Z,26.8125
2023-01-02T21:42:20.565Z,20.1
2023-01-02T21:44:16.234Z,17.6125
2023-01-02T21:47:17.101Z,19.05
2023-01-02T21:51:16.940Z,21.0125
2023-01-02T21:54:17.193Z,22.2375
2023-01-02T21:57:20.211Z,24.3
2023-01-02T22:01:17.290Z,28.5
2023-01-02T22:04:17.878Z,20.887500000000003
2023-01-02T22:07:32.667Z,28.549999999999997
2023-01-02T22:12:21.448Z,31.587500000000006
2023-01-02T22:14:16.872Z,28.137499999999996
2023-01-02T22:17:16.881Z,26.275
2023-01-02T22:21:16.199Z,18.5125
2023-01-02T22:24:16.988Z,19.625
2023-01-02T22:27:18.552Z,13.15
2023-01-02T22:31:16.353Z,17.5375
2023-01-02T22:34:18.209Z,15.774999999999999
2023-01-02T22:37:22.327Z,16.7625
2023-01-02T22:41:15.731Z,22.5625
2023-01-02T22:44:20.544Z,22.275000000000002
2023-01-02T22:47:25.136Z,24.1375
2023-01-02T22:51:18.419Z,24.05
2023-01-02T22:54:18.314Z,20.525
2023-01-02T22:57:18.022Z,27.05
2023-01-02T23:01:22.640Z,21.3625
2023-01-02T23:04:18.919Z,13.6875
2023-01-02T23:07:24.346Z,16.2375
2023-01-02T23:11:16.449Z,20.5125
2023-01-02T23:14:16.403Z,16.4875
2023-01-02T23:21:16.409Z,20.325
2023-01-02T23:24:20.719Z,18.025
2023-01-02T23:27:17.075Z,17.9
2023-01-02T23:31:16.441Z,22.4125
2023-01-02T23:34:18.685Z,20.962500000000002
2023-01-02T23:37:16.682Z,16.95
2023-01-02T23:41:15.997Z,15.962499999999999
2023-01-02T23:44:17.070Z,20.849999999999998
2023-01-02T23:47:19.315Z,19.8
2023-01-02T23:51:17.209Z,15.825
2023-01-02T23:54:17.401Z,17.0875
2023-01-02T23:57:16.909Z,13.675
